Naples, UT

9:35 AM MDT on April 21, 2015 (GMT -0600)
Maeser | | Change Station
CLOSE
Current Station
Personal Weather Station
Location: Vernal, UT
Elevation: 5469 ft
Nearby Weather Stations

Elev 5469 ft 40.46 °N, 109.57 °W | Updated 5 minutes ago

Clear
Clear
53.9 °F
Feels Like 53.9 °F
N
3.0
Wind Variable Wind from ESE
Gusts 8.0 mph

Today
High -- | Low -- °F
--% Chance of Precip.
Yesterday
High -- | Low -- °F
Precip. -- in
6:31 AM 8:03 PM
Waxing Crescent, 11% visible
Pressure 29.89 in
Visibility 10.0 miles
Clouds Clear
Dew Point 31 °F
Humidity 42%
Rainfall 0.00 in
Snow Depth Not available.
UV 2.3 out of 12
Pollen 10.20 out of 12
Air Quality Not available.
Flu Activity Local Activity
METAR KVEL 211453Z AUTO 15003KT 10SM CLR 10/M03 A2997 RMK AO2 SLP120 T01001028 51008

More Conditions Fewer Conditions

Pressure 29.89 in
Visibility 10.0 miles
Clouds Clear
Dew Point 31 °F
Humidity 42%
Rainfall 0.00 in
Snow Depth Not available.
UV 2.3 out of 12
Pollen 10.20 out of 12
Air Quality Not available.
Flu Activity Local Activity
METAR KVEL 211453Z AUTO 15003KT 10SM CLR 10/M03 A2997 RMK AO2 SLP120 T01001028 51008

More Conditions Fewer Conditions

10-Day Weather Forecast

Almanac

Astronomy

Apr. 21, 2015 Rise Set
Actual Time
Civil Twilight
Nautical Twilight
Astronomical Twilight
Moon
Length of Visible Light
Length of Day
Tomorrow will be .
, % of the Moon is Illuminated

Today's Extremes

State Highs State Lows

Community

WunderPhotos

Upload Photos

1,815,422 photos uploaded!

WunderBlogs® & News

Nearby

Air Quality

  Air Quality AQ Index Pollutant
Not available.

Snow Depth

Station Depth Elevation

Earthquake Activity

City Distance Mag. Time & Date
Minimum magnitude displayed is 2.5.

Coastal Water Temperatures

Place Temperature

Stations

Nearby Weather Stations

Station Location Temp. Windchill Dew Point Humidity Wind Precip. Elev Updated Type